Time;durP1;ratioP1;P1;durP2;ratioP2;P2;SDS_P1;SDS_P2;PMS_P1;PMS_P2;Temp;Humidity;BMP_temperature;BMP_pressure;BME280_temperature;BME280_humidity;BME280_pressure;Samples;Min_cycle;Max_cycle;Signal;HPM_P1;HPM_P2
2023/09/08 00:02:03;;;;;;;11.35;6.60;;;20.50;99.90;;;;;;5067595;28;20101;-71
2023/09/08 00:04:29;;;;;;;11.05;7.47;;;20.50;99.90;;;;;;5067165;28;20051;-71
2023/09/08 00:06:55;;;;;;;15.43;8.18;;;20.40;99.90;;;;;;5052987;28;20044;-71
2023/09/08 00:09:20;;;;;;;15.50;8.05;;;20.40;99.90;;;;;;5051425;28;20185;-71
2023/09/08 00:11:46;;;;;;;10.75;7.35;;;20.30;99.90;;;;;;5067119;28;20762;-71
2023/09/08 00:14:15;;;;;;;14.77;7.38;;;20.20;99.90;;;;;;5068118;28;20153;-71
2023/09/08 00:16:43;;;;;;;13.90;8.32;;;20.20;99.90;;;;;;5066781;28;20044;-71
2023/09/08 00:19:10;;;;;;;13.43;8.13;;;20.20;99.90;;;;;;5067787;28;20048;-71
2023/09/08 00:21:38;;;;;;;12.38;8.40;;;20.10;99.90;;;;;;5067667;28;20073;-71
2023/09/08 00:24:05;;;;;;;12.82;8.50;;;20.20;99.90;;;;;;5067131;28;20504;-71
2023/09/08 00:26:32;;;;;;;12.70;8.23;;;20.10;99.90;;;;;;5066387;28;20040;-71
2023/09/08 00:28:57;;;;;;;12.02;8.50;;;20.10;99.90;;;;;;5050287;28;20426;-71
2023/09/08 00:31:23;;;;;;;11.63;7.60;;;20.00;99.90;;;;;;5056569;28;20101;-70
2023/09/08 00:33:49;;;;;;;13.05;8.05;;;20.00;99.90;;;;;;5067350;28;20053;-71
2023/09/08 00:36:15;;;;;;;13.32;8.13;;;19.90;99.90;;;;;;5066721;28;20374;-71
2023/09/08 00:38:41;;;;;;;10.63;8.07;;;19.90;99.90;;;;;;5067329;28;20052;-71
2023/09/08 00:41:07;;;;;;;12.35;8.00;;;19.80;99.90;;;;;;5065830;28;20068;-71
2023/09/08 00:43:33;;;;;;;13.20;8.38;;;19.80;99.90;;;;;;5065204;28;20048;-71
2023/09/08 00:46:00;;;;;;;12.23;8.48;;;19.80;99.90;;;;;;5063752;28;20179;-71
2023/09/08 00:48:26;;;;;;;11.63;8.32;;;19.80;99.90;;;;;;5064285;28;20145;-71
2023/09/08 00:50:52;;;;;;;14.38;8.93;;;19.70;99.90;;;;;;5065545;28;20064;-71
2023/09/08 00:53:18;;;;;;;15.20;8.48;;;19.70;99.90;;;;;;5066963;28;20493;-71
2023/09/08 00:55:45;;;;;;;11.10;8.43;;;19.70;99.90;;;;;;5066234;28;20044;-71
2023/09/08 00:58:11;;;;;;;13.98;8.55;;;19.70;99.90;;;;;;5067104;28;20048;-71
2023/09/08 01:00:37;;;;;;;10.85;8.25;;;19.70;99.90;;;;;;5065713;28;20496;-70
2023/09/08 01:03:03;;;;;;;14.40;8.90;;;19.60;99.90;;;;;;5065113;28;20152;-71
2023/09/08 01:05:29;;;;;;;13.10;8.27;;;19.60;99.90;;;;;;5063443;28;20087;-71
2023/09/08 01:07:56;;;;;;;11.25;8.27;;;19.60;99.90;;;;;;5065542;28;20505;-71
2023/09/08 01:10:23;;;;;;;10.88;7.93;;;19.60;99.90;;;;;;5065968;28;20055;-72
2023/09/08 01:12:49;;;;;;;12.20;8.48;;;19.50;99.90;;;;;;5066694;28;20041;-71
2023/09/08 01:15:15;;;;;;;12.10;8.57;;;19.50;99.90;;;;;;5066615;28;20048;-71
2023/09/08 01:17:40;;;;;;;13.30;8.60;;;19.50;99.90;;;;;;5066895;28;20046;-70
2023/09/08 01:20:17;;;;;;;15.75;8.30;;;19.50;99.90;;;;;;5065977;28;20162;-70
2023/09/08 01:23:01;;;;;;;11.25;8.10;;;19.50;99.90;;;;;;5064601;28;20045;-70
2023/09/08 01:25:29;;;;;;;11.20;8.52;;;19.40;99.90;;;;;;5063474;28;20036;-70
2023/09/08 01:27:58;;;;;;;12.55;8.40;;;19.40;99.90;;;;;;5066576;28;20131;-70
2023/09/08 01:30:27;;;;;;;11.05;8.45;;;19.30;99.90;;;;;;5066641;28;20037;-70
2023/09/08 01:32:55;;;;;;;11.82;7.78;;;19.30;99.90;;;;;;5065949;28;20080;-70
2023/09/08 01:35:21;;;;;;;14.35;8.52;;;19.30;99.90;;;;;;5064725;28;20045;-71
2023/09/08 01:37:48;;;;;;;24.67;9.40;;;19.20;99.90;;;;;;5051144;28;20044;-71
2023/09/08 01:40:15;;;;;;;11.93;8.07;;;19.20;99.90;;;;;;5062654;28;20498;-71
2023/09/08 01:42:41;;;;;;;12.45;8.70;;;19.20;99.90;;;;;;5048584;28;20242;-70
2023/09/08 01:45:08;;;;;;;15.05;9.23;;;19.20;99.90;;;;;;5049906;28;20595;-70
2023/09/08 01:47:34;;;;;;;11.55;8.30;;;19.20;99.90;;;;;;5065093;28;20057;-71
2023/09/08 01:50:00;;;;;;;15.57;9.43;;;19.20;99.90;;;;;;5066140;28;20413;-70
2023/09/08 01:52:27;;;;;;;12.45;8.60;;;19.10;99.90;;;;;;5063878;28;20036;-69
2023/09/08 01:54:53;;;;;;;17.63;8.88;;;19.10;99.90;;;;;;5047875;28;20746;-70
2023/09/08 01:57:19;;;;;;;11.65;9.07;;;19.10;99.90;;;;;;5065298;28;20109;-70
2023/09/08 01:59:44;;;;;;;13.00;9.55;;;19.00;99.90;;;;;;5064760;28;20132;-71
2023/09/08 02:02:11;;;;;;;14.15;9.10;;;19.00;99.90;;;;;;5063713;28;20127;-70
2023/09/08 02:04:37;;;;;;;14.88;9.63;;;19.00;99.90;;;;;;5064745;28;20482;-70
2023/09/08 02:07:03;;;;;;;15.77;9.40;;;18.90;99.90;;;;;;5064211;28;20158;-70
2023/09/08 02:09:36;;;;;;;13.20;9.05;;;18.90;99.90;;;;;;5065222;28;20040;-70
2023/09/08 02:12:03;;;;;;;13.63;8.75;;;18.90;99.90;;;;;;5065344;28;20158;-71
2023/09/08 02:14:30;;;;;;;12.43;9.10;;;18.80;99.90;;;;;;5069745;28;20033;-72
2023/09/08 02:16:56;;;;;;;13.02;9.35;;;18.80;99.90;;;;;;5069081;28;20382;-72
2023/09/08 02:19:22;;;;;;;12.98;9.43;;;18.70;99.90;;;;;;5051276;28;20517;-72
2023/09/08 02:21:48;;;;;;;13.45;9.75;;;18.70;99.90;;;;;;5064815;28;20056;-72
2023/09/08 02:24:14;;;;;;;13.50;10.18;;;18.70;99.90;;;;;;5063726;28;20087;-72
2023/09/08 02:26:41;;;;;;;14.93;9.82;;;18.60;99.90;;;;;;5068791;28;20044;-72
2023/09/08 02:29:07;;;;;;;14.73;10.70;;;18.60;99.90;;;;;;5053800;28;20119;-72
2023/09/08 02:31:33;;;;;;;15.02;10.10;;;18.60;99.90;;;;;;5069230;28;20048;-72
2023/09/08 02:33:59;;;;;;;13.68;9.60;;;18.50;99.90;;;;;;5058496;28;20044;-72
2023/09/08 02:36:26;;;;;;;14.98;10.55;;;18.50;99.90;;;;;;5069372;28;20404;-72
2023/09/08 02:38:52;;;;;;;13.38;9.73;;;18.50;99.90;;;;;;5057490;28;20044;-72
2023/09/08 02:41:19;;;;;;;13.40;9.88;;;18.50;99.90;;;;;;5060333;28;20170;-72
2023/09/08 02:43:44;;;;;;;16.23;9.82;;;18.40;99.90;;;;;;5068410;28;20052;-72
2023/09/08 02:46:10;;;;;;;16.70;10.75;;;18.40;99.90;;;;;;5069806;28;20509;-72
2023/09/08 02:48:37;;;;;;;17.27;9.82;;;18.40;99.90;;;;;;5069652;28;20040;-72
2023/09/08 02:51:03;;;;;;;14.43;10.73;;;18.40;99.90;;;;;;5067156;28;20467;-72
2023/09/08 02:53:29;;;;;;;16.05;10.57;;;18.30;99.90;;;;;;5067174;28;20123;-72
2023/09/08 02:55:55;;;;;;;15.38;9.80;;;18.30;99.90;;;;;;5069866;28;20059;-72
2023/09/08 02:58:21;;;;;;;14.80;10.48;;;18.30;99.90;;;;;;5069369;28;20040;-71
2023/09/08 03:00:47;;;;;;;12.55;9.85;;;18.30;99.90;;;;;;5068465;28;20620;-72
2023/09/08 03:03:13;;;;;;;15.20;10.05;;;18.30;99.90;;;;;;5068769;28;20161;-72
2023/09/08 03:05:39;;;;;;;15.63;10.65;;;18.20;99.90;;;;;;5068941;28;20124;-71
2023/09/08 03:08:06;;;;;;;15.00;11.30;;;18.20;99.90;;;;;;5067718;28;20056;-71
2023/09/08 03:10:34;;;;;;;14.75;10.02;;;18.20;99.90;;;;;;5069144;28;20420;-71
2023/09/08 03:13:03;;;;;;;14.48;9.38;;;18.20;99.90;;;;;;5066671;28;20032;-72
2023/09/08 03:15:29;;;;;;;17.50;10.10;;;18.20;99.90;;;;;;5067262;28;20040;-71
2023/09/08 03:17:56;;;;;;;15.75;11.05;;;18.10;99.90;;;;;;5060454;28;20052;-71
2023/09/08 03:20:22;;;;;;;15.93;10.18;;;18.10;99.90;;;;;;5063768;28;20412;-72
2023/09/08 03:22:48;;;;;;;13.05;9.90;;;18.10;99.90;;;;;;5062829;28;20148;-71
2023/09/08 03:25:14;;;;;;;15.38;10.57;;;18.00;99.90;;;;;;5066346;28;20448;-72
2023/09/08 03:27:40;;;;;;;14.48;10.25;;;18.00;99.90;;;;;;5065800;28;20127;-71
2023/09/08 03:30:07;;;;;;;17.10;10.35;;;18.00;99.90;;;;;;5065066;28;20453;-72
2023/09/08 03:32:33;;;;;;;13.75;9.52;;;18.00;99.90;;;;;;5064510;28;20068;-71
2023/09/08 03:34:58;;;;;;;27.48;10.48;;;18.00;99.90;;;;;;5062568;28;20056;-71
2023/09/08 03:37:26;;;;;;;14.45;10.20;;;17.90;99.90;;;;;;5065790;28;20099;-70
2023/09/08 03:39:52;;;;;;;14.25;10.35;;;17.90;99.90;;;;;;5063468;28;20040;-71
2023/09/08 03:42:18;;;;;;;14.68;10.23;;;17.90;99.90;;;;;;5062743;28;20044;-71
2023/09/08 03:44:44;;;;;;;13.82;9.95;;;17.90;99.90;;;;;;5065508;28;20047;-70
2023/09/08 03:47:09;;;;;;;15.25;10.55;;;17.80;99.90;;;;;;5065946;28;20044;-70
2023/09/08 03:49:35;;;;;;;13.32;10.35;;;17.80;99.90;;;;;;5066648;28;20036;-70
2023/09/08 03:52:01;;;;;;;15.70;10.07;;;17.80;99.90;;;;;;5063803;28;20036;-70
2023/09/08 03:54:27;;;;;;;16.70;10.10;;;17.70;99.90;;;;;;5064498;28;20128;-70
2023/09/08 03:56:52;;;;;;;14.50;10.00;;;17.80;99.90;;;;;;5065199;28;20045;-70
2023/09/08 03:59:18;;;;;;;13.73;9.98;;;17.70;99.90;;;;;;5062967;28;20498;-70
2023/09/08 04:01:44;;;;;;;14.20;9.80;;;17.70;99.90;;;;;;5061606;28;20120;-70
2023/09/08 04:04:09;;;;;;;12.05;9.50;;;17.70;99.90;;;;;;5063100;28;20037;-69
2023/09/08 04:06:35;;;;;;;13.27;9.52;;;17.70;99.90;;;;;;5056271;28;20041;-70
2023/09/08 04:09:01;;;;;;;19.00;10.88;;;17.70;99.90;;;;;;5057654;28;20048;-70
2023/09/08 04:11:27;;;;;;;15.07;9.70;;;17.70;99.90;;;;;;5060647;28;20036;-70
2023/09/08 04:13:52;;;;;;;17.23;10.20;;;17.70;99.90;;;;;;5054325;28;20041;-70
2023/09/08 04:16:18;;;;;;;16.58;10.63;;;17.60;99.90;;;;;;5059321;28;20032;-70
2023/09/08 04:18:44;;;;;;;16.50;10.13;;;17.60;99.90;;;;;;5055826;28;20040;-70
2023/09/08 04:21:10;;;;;;;16.35;9.88;;;17.60;99.90;;;;;;5050776;28;20533;-70
2023/09/08 04:23:36;;;;;;;14.35;9.77;;;17.60;99.90;;;;;;5056525;28;20123;-70
2023/09/08 04:26:02;;;;;;;16.05;10.07;;;17.50;99.90;;;;;;5060523;28;20090;-70
2023/09/08 04:28:28;;;;;;;13.63;9.75;;;17.50;99.90;;;;;;5064743;28;20505;-70
2023/09/08 04:30:53;;;;;;;13.60;9.75;;;17.50;99.90;;;;;;5064836;28;20045;-70
2023/09/08 04:33:19;;;;;;;15.95;10.05;;;17.50;99.90;;;;;;5063632;28;20101;-70
2023/09/08 04:35:45;;;;;;;13.73;9.70;;;17.50;99.90;;;;;;5064778;28;20533;-70
2023/09/08 04:38:11;;;;;;;14.85;10.05;;;17.50;99.90;;;;;;5060903;28;20405;-70
2023/09/08 04:40:40;;;;;;;14.10;9.93;;;17.40;99.90;;;;;;5061272;28;20040;-70
2023/09/08 04:43:05;;;;;;;16.15;10.65;;;17.40;99.90;;;;;;5056745;28;20041;-70
2023/09/08 04:45:31;;;;;;;14.88;9.65;;;17.40;99.90;;;;;;5059537;28;20051;-70
2023/09/08 04:47:57;;;;;;;18.40;10.68;;;17.30;99.90;;;;;;5063990;28;20029;-70
2023/09/08 04:50:23;;;;;;;15.07;10.20;;;17.30;99.90;;;;;;5056874;28;20080;-70
2023/09/08 04:52:48;;;;;;;13.77;10.45;;;17.30;99.90;;;;;;5049002;28;20051;-70
2023/09/08 04:55:14;;;;;;;16.75;10.52;;;17.30;99.90;;;;;;5044861;28;20068;-70
2023/09/08 04:57:40;;;;;;;15.32;10.40;;;17.30;99.90;;;;;;5045333;28;20045;-70
2023/09/08 05:00:06;;;;;;;15.25;10.95;;;17.20;99.90;;;;;;5042467;28;20046;-70
2023/09/08 05:02:32;;;;;;;14.75;10.63;;;17.20;99.90;;;;;;5042795;28;20278;-70
2023/09/08 05:04:59;;;;;;;18.02;11.63;;;17.20;99.90;;;;;;5041382;28;20504;-70
2023/09/08 05:07:25;;;;;;;19.77;10.80;;;17.20;99.90;;;;;;5041330;28;20049;-70
2023/09/08 05:09:51;;;;;;;16.38;10.85;;;17.20;99.90;;;;;;5037944;28;20589;-70
2023/09/08 05:12:17;;;;;;;15.00;11.38;;;17.10;99.90;;;;;;5034994;28;20056;-70
2023/09/08 05:14:43;;;;;;;13.55;10.38;;;17.10;99.90;;;;;;5035673;28;20060;-70
2023/09/08 05:17:09;;;;;;;13.43;9.98;;;17.10;99.90;;;;;;5035572;28;20037;-70
2023/09/08 05:19:34;;;;;;;14.52;10.68;;;17.10;99.90;;;;;;5038945;28;20055;-71
2023/09/08 05:22:01;;;;;;;13.55;10.27;;;17.10;99.90;;;;;;5040590;28;20045;-71
2023/09/08 05:24:26;;;;;;;13.75;10.27;;;17.00;99.90;;;;;;5037890;28;20044;-71
2023/09/08 05:26:52;;;;;;;15.00;11.13;;;17.00;99.90;;;;;;5042590;28;20720;-70
2023/09/08 05:29:18;;;;;;;16.42;10.35;;;17.00;99.90;;;;;;5037960;28;20138;-70
2023/09/08 05:31:44;;;;;;;16.00;11.57;;;17.00;99.90;;;;;;5036663;28;20069;-72
2023/09/08 05:34:10;;;;;;;15.85;10.32;;;17.00;99.90;;;;;;5036597;28;20068;-71
2023/09/08 05:36:38;;;;;;;14.93;10.25;;;17.00;99.90;;;;;;5040165;28;20171;-72
2023/09/08 05:39:05;;;;;;;14.45;10.05;;;17.00;99.90;;;;;;5036376;28;20402;-71
2023/09/08 05:41:31;;;;;;;12.48;9.93;;;17.00;99.90;;;;;;5039625;28;20057;-71
2023/09/08 05:43:57;;;;;;;14.65;10.85;;;17.00;99.90;;;;;;5037992;28;20131;-72
2023/09/08 05:46:23;;;;;;;13.73;9.73;;;17.00;99.90;;;;;;5043535;28;20058;-72
2023/09/08 05:48:49;;;;;;;15.32;10.43;;;17.10;99.90;;;;;;5039398;28;20175;-71
2023/09/08 05:51:15;;;;;;;13.73;9.68;;;17.20;99.90;;;;;;5041897;28;20055;-71
2023/09/08 05:53:42;;;;;;;11.40;8.82;;;17.20;99.90;;;;;;5041518;28;20130;-71
2023/09/08 05:56:08;;;;;;;13.88;9.82;;;17.20;99.90;;;;;;5041084;28;20653;-71
2023/09/08 05:58:34;;;;;;;14.20;10.38;;;17.30;99.90;;;;;;5038405;28;20105;-72
2023/09/08 06:01:02;;;;;;;13.48;9.07;;;17.30;99.90;;;;;;5042036;28;20077;-73
2023/09/08 06:03:28;;;;;;;13.35;9.50;;;17.30;99.90;;;;;;5038421;28;20171;-72
2023/09/08 06:05:54;;;;;;;13.38;9.60;;;17.40;99.90;;;;;;5039614;28;22218;-72
2023/09/08 06:08:19;;;;;;;12.45;8.95;;;17.40;99.90;;;;;;5042344;28;20044;-72
2023/09/08 06:10:45;;;;;;;14.40;9.32;;;17.40;99.90;;;;;;5040224;28;20041;-73
2023/09/08 06:13:11;;;;;;;12.63;9.40;;;17.40;99.90;;;;;;5043398;28;20048;-72
2023/09/08 06:15:37;;;;;;;15.55;10.00;;;17.40;99.90;;;;;;5041001;28;20044;-71
2023/09/08 06:18:03;;;;;;;17.67;9.63;;;17.50;99.90;;;;;;5042674;28;20052;-71
2023/09/08 06:20:29;;;;;;;13.82;9.55;;;17.50;99.90;;;;;;5041486;28;20064;-71
2023/09/08 06:22:55;;;;;;;13.50;9.32;;;17.50;99.90;;;;;;5045454;28;20044;-71
2023/09/08 06:25:20;;;;;;;12.20;9.13;;;17.50;99.90;;;;;;5044164;28;20097;-71
2023/09/08 06:27:47;;;;;;;12.73;9.23;;;17.50;99.90;;;;;;5045789;28;20122;-72
2023/09/08 06:30:17;;;;;;;12.85;9.20;;;17.60;99.90;;;;;;5047737;28;20048;-72
2023/09/08 06:32:43;;;;;;;14.43;9.48;;;17.60;99.90;;;;;;5053423;28;20119;-72
2023/09/08 06:35:09;;;;;;;15.25;8.80;;;17.70;99.90;;;;;;5058450;28;20052;-72
2023/09/08 06:37:39;;;;;;;12.48;8.73;;;17.80;99.90;;;;;;5055781;28;20509;-72
2023/09/08 06:40:05;;;;;;;12.35;8.73;;;17.90;99.90;;;;;;5058542;28;20106;-72
2023/09/08 06:42:32;;;;;;;11.60;8.27;;;17.90;99.90;;;;;;5049035;28;20061;-72
2023/09/08 06:44:58;;;;;;;12.27;8.13;;;17.90;99.90;;;;;;5050164;28;20090;-72
2023/09/08 06:47:24;;;;;;;11.07;7.82;;;18.00;99.90;;;;;;5047163;28;20135;-72
2023/09/08 06:49:50;;;;;;;12.35;8.65;;;18.00;99.90;;;;;;5051440;28;20167;-72
2023/09/08 06:52:17;;;;;;;11.30;8.00;;;18.10;99.90;;;;;;5059000;28;20036;-72
2023/09/08 06:54:45;;;;;;;13.13;8.30;;;18.10;99.90;;;;;;5053856;28;20045;-73
2023/09/08 06:57:12;;;;;;;14.82;8.10;;;18.20;99.90;;;;;;5053263;28;20091;-73
2023/09/08 06:59:38;;;;;;;12.38;8.02;;;18.30;99.90;;;;;;5054041;28;20064;-73
2023/09/08 07:02:04;;;;;;;13.02;8.20;;;18.30;99.90;;;;;;5058246;28;20048;-73
2023/09/08 07:04:31;;;;;;;11.50;7.75;;;18.30;99.90;;;;;;5065036;28;20551;-73
2023/09/08 07:06:57;;;;;;;14.25;7.97;;;18.40;99.90;;;;;;5053856;28;20048;-73
2023/09/08 07:09:22;;;;;;;11.40;7.93;;;18.50;99.90;;;;;;5057674;28;20101;-73
2023/09/08 07:11:48;;;;;;;12.85;7.78;;;18.60;99.90;;;;;;5056893;28;20078;-73
2023/09/08 07:14:14;;;;;;;11.13;7.43;;;18.60;99.90;;;;;;5057325;28;20516;-73
2023/09/08 07:16:39;;;;;;;13.80;7.07;;;18.60;99.90;;;;;;5057931;28;20155;-73
2023/09/08 07:19:05;;;;;;;10.68;7.00;;;18.80;99.90;;;;;;5055763;28;20045;-73
2023/09/08 07:21:31;;;;;;;12.80;7.15;;;18.90;99.90;;;;;;5054387;28;20056;-73
2023/09/08 07:23:58;;;;;;;11.88;6.75;;;19.00;99.90;;;;;;5059470;28;20053;-74
2023/09/08 07:26:23;;;;;;;12.15;6.30;;;19.20;99.90;;;;;;5061607;28;20045;-74
2023/09/08 07:28:49;;;;;;;11.65;6.38;;;19.40;99.90;;;;;;5066453;28;20048;-74
2023/09/08 07:31:15;;;;;;;11.63;6.18;;;19.60;99.90;;;;;;5062266;28;20047;-74
2023/09/08 07:33:41;;;;;;;10.25;6.22;;;19.70;99.90;;;;;;5065247;28;20600;-74
2023/09/08 07:36:08;;;;;;;10.45;5.93;;;19.90;99.90;;;;;;5088463;27;20045;-73
2023/09/08 07:38:34;;;;;;;9.68;5.85;;;20.10;99.90;;;;;;5059134;28;20124;-72
2023/09/08 07:41:01;;;;;;;9.70;5.30;;;20.30;99.90;;;;;;5061583;28;20056;-72
2023/09/08 07:43:28;;;;;;;11.15;5.60;;;20.50;99.90;;;;;;5056306;28;20103;-71
2023/09/08 07:45:53;;;;;;;8.88;5.05;;;20.60;99.90;;;;;;5079329;27;20746;-72
2023/09/08 07:48:19;;;;;;;8.90;5.50;;;20.80;99.90;;;;;;5028280;28;20067;-72
2023/09/08 07:50:45;;;;;;;7.93;5.10;;;21.00;99.90;;;;;;5048725;28;20710;-73
2023/09/08 07:53:11;;;;;;;8.55;5.50;;;21.10;99.90;;;;;;5049628;28;20783;-71
2023/09/08 07:55:37;;;;;;;9.27;4.80;;;21.20;99.90;;;;;;5052092;28;20056;-71
2023/09/08 07:58:06;;;;;;;8.75;5.20;;;21.30;99.90;;;;;;5040555;28;20083;-72
2023/09/08 08:00:32;;;;;;;8.00;4.93;;;21.50;99.90;;;;;;5045881;28;20048;-73
2023/09/08 08:02:58;;;;;;;8.93;5.10;;;21.60;99.90;;;;;;5052226;28;20122;-72
2023/09/08 08:05:25;;;;;;;9.02;5.35;;;21.70;99.90;;;;;;5054130;28;20047;-72
2023/09/08 08:07:51;;;;;;;8.93;5.00;;;21.80;99.90;;;;;;5052144;28;20051;-73
2023/09/08 08:10:17;;;;;;;7.97;4.50;;;21.90;99.90;;;;;;5051018;28;20505;-72
2023/09/08 08:12:44;;;;;;;6.45;4.32;;;22.00;99.90;;;;;;5049675;28;20195;-72
2023/09/08 08:15:10;;;;;;;9.73;5.15;;;22.10;99.90;;;;;;5044060;28;20513;-72
2023/09/08 08:17:37;;;;;;;7.80;4.50;;;22.20;99.90;;;;;;5053730;28;20098;-72
2023/09/08 08:20:09;;;;;;;9.65;5.20;;;22.30;99.90;;;;;;5052391;28;20755;-73
2023/09/08 08:22:35;;;;;;;8.73;5.45;;;22.40;99.90;;;;;;5047336;28;20045;-73
2023/09/08 08:25:01;;;;;;;10.45;5.07;;;22.50;99.90;;;;;;5030708;28;20036;-73
2023/09/08 08:27:27;;;;;;;8.70;4.60;;;22.60;99.90;;;;;;5052491;28;20045;-72
2023/09/08 08:29:53;;;;;;;12.75;5.03;;;22.70;99.90;;;;;;5053828;28;20095;-72
2023/09/08 08:32:18;;;;;;;8.38;4.65;;;22.80;99.90;;;;;;5055120;28;20947;-72
2023/09/08 08:34:44;;;;;;;9.63;4.60;;;22.90;99.90;;;;;;5049880;28;20166;-72
2023/09/08 08:37:11;;;;;;;9.32;4.78;;;23.10;99.90;;;;;;5057092;28;20121;-72
2023/09/08 08:39:36;;;;;;;7.80;4.82;;;23.10;99.90;;;;;;5041348;28;20045;-72
2023/09/08 08:42:13;;;;;;;10.30;5.07;;;23.20;99.90;;;;;;5052413;28;20102;-72
2023/09/08 08:44:39;;;;;;;7.82;4.85;;;23.30;99.90;;;;;;5054351;28;20050;-71
2023/09/08 08:47:07;;;;;;;8.75;4.70;;;23.40;99.90;;;;;;5054826;28;20048;-72
2023/09/08 08:49:34;;;;;;;7.10;4.53;;;23.50;99.90;;;;;;5050824;28;20055;-72
2023/09/08 08:52:03;;;;;;;10.23;4.78;;;23.60;99.90;;;;;;5057956;28;20115;-71
2023/09/08 08:54:29;;;;;;;9.88;4.70;;;23.70;99.90;;;;;;5065776;28;20147;-71
2023/09/08 08:56:56;;;;;;;10.63;4.15;;;23.80;99.90;;;;;;5059919;28;20514;-72
2023/09/08 08:59:22;;;;;;;7.68;4.30;;;23.90;99.90;;;;;;5056435;28;20132;-71
2023/09/08 09:01:49;;;;;;;8.25;4.78;;;24.00;99.90;;;;;;5060328;28;20079;-71
2023/09/08 09:04:16;;;;;;;8.70;4.63;;;24.00;99.90;;;;;;5055009;28;20056;-72
2023/09/08 09:06:43;;;;;;;9.00;4.28;;;24.20;99.90;;;;;;5056582;28;20137;-72
2023/09/08 09:09:10;;;;;;;8.85;4.82;;;24.20;99.90;;;;;;5059536;28;20094;-72
2023/09/08 09:11:36;;;;;;;9.38;4.30;;;24.30;99.90;;;;;;5057445;28;20055;-72
2023/09/08 09:14:03;;;;;;;9.77;4.68;;;24.40;99.90;;;;;;5061369;28;20048;-72
2023/09/08 09:16:28;;;;;;;8.35;4.50;;;24.50;99.90;;;;;;5057483;28;20042;-72
2023/09/08 09:18:56;;;;;;;10.55;4.90;;;24.60;99.90;;;;;;5058634;28;20041;-71
2023/09/08 09:21:23;;;;;;;7.93;4.28;;;24.70;99.90;;;;;;5055504;28;20131;-71
2023/09/08 09:23:49;;;;;;;9.45;4.80;;;24.70;99.90;;;;;;5051451;28;20185;-72
2023/09/08 09:26:25;;;;;;;10.95;5.28;;;24.80;99.90;;;;;;5058745;28;20040;-71
2023/09/08 09:28:53;;;;;;;9.38;4.22;;;24.80;99.90;;;;;;5058164;28;20068;-73
2023/09/08 09:31:23;;;;;;;8.80;4.20;;;24.90;99.90;;;;;;5064560;28;20083;-73
2023/09/08 09:34:03;;;;;;;10.85;5.30;;;25.00;99.90;;;;;;5059908;28;20048;-74
2023/09/08 09:36:28;;;;;;;8.45;4.57;;;25.00;99.90;;;;;;5057337;28;20374;-74
2023/09/08 09:39:00;;;;;;;7.70;4.40;;;25.10;99.90;;;;;;5062455;28;20043;-74
2023/09/08 09:41:29;;;;;;;9.65;4.20;;;25.20;99.90;;;;;;5064803;28;20098;-73
2023/09/08 09:43:56;;;;;;;9.50;4.30;;;25.30;99.90;;;;;;5061538;28;20044;-75
2023/09/08 09:46:22;;;;;;;9.13;4.00;;;25.30;99.90;;;;;;5060866;28;20041;-74
2023/09/08 09:48:56;;;;;;;11.93;4.25;;;25.40;99.90;;;;;;5043287;28;20047;-75
2023/09/08 09:51:22;;;;;;;13.90;4.53;;;25.50;99.90;;;;;;5063817;28;20105;-74
2023/09/08 09:53:49;;;;;;;9.95;4.57;;;25.50;99.90;;;;;;5035815;28;20053;-70
2023/09/08 09:56:17;;;;;;;10.82;4.70;;;25.60;99.90;;;;;;5062565;28;20041;-71
2023/09/08 09:58:44;;;;;;;7.57;3.88;;;25.60;99.90;;;;;;5054582;28;20040;-71
2023/09/08 10:01:11;;;;;;;8.35;4.22;;;25.70;99.90;;;;;;5063069;28;20041;-72
2023/09/08 10:03:40;;;;;;;10.90;4.28;;;25.70;99.90;;;;;;5058273;28;20037;-72
2023/09/08 10:06:06;;;;;;;10.40;4.22;;;25.80;99.90;;;;;;5062232;28;20067;-72
2023/09/08 10:08:36;;;;;;;7.60;4.43;;;25.90;99.90;;;;;;5058835;28;20132;-73
2023/09/08 10:11:06;;;;;;;10.95;4.70;;;26.00;99.90;;;;;;5062854;28;20052;-73
2023/09/08 10:13:40;;;;;;;11.27;4.35;;;26.00;99.90;;;;;;5060194;28;20549;-73
2023/09/08 10:16:07;;;;;;;7.43;4.38;;;26.10;99.90;;;;;;5058203;28;20040;-74
2023/09/08 10:18:34;;;;;;;8.43;4.00;;;26.20;99.90;;;;;;5062507;28;20409;-74
2023/09/08 10:21:04;;;;;;;11.77;4.55;;;26.20;99.90;;;;;;5054088;28;20100;-75
2023/09/08 10:23:42;;;;;;;6.78;4.30;;;26.20;99.90;;;;;;5051612;28;20045;-74
2023/09/08 10:26:11;;;;;;;9.00;4.20;;;26.30;99.90;;;;;;5055418;28;20452;-74
2023/09/08 10:28:38;;;;;;;8.02;4.13;;;26.30;99.90;;;;;;5049302;28;20048;-75
2023/09/08 10:31:05;;;;;;;8.55;4.15;;;26.40;99.90;;;;;;5048969;28;20075;-76
2023/09/08 10:33:31;;;;;;;8.90;4.43;;;26.40;99.90;;;;;;5053602;28;20055;-75
2023/09/08 10:35:59;;;;;;;7.13;4.00;;;26.50;99.90;;;;;;5055500;28;20052;-74
2023/09/08 10:38:27;;;;;;;7.90;4.35;;;26.50;99.90;;;;;;5066090;28;20450;-75
2023/09/08 10:40:54;;;;;;;10.20;3.80;;;26.60;99.90;;;;;;5054897;28;20974;-74
2023/09/08 10:43:20;;;;;;;9.38;4.60;;;26.70;99.90;;;;;;5056694;28;20051;-75
2023/09/08 10:45:47;;;;;;;6.65;4.00;;;26.70;99.90;;;;;;5059944;28;20083;-74
2023/09/08 10:48:15;;;;;;;9.98;4.40;;;26.70;99.90;;;;;;5039671;28;20064;-75
2023/09/08 10:50:42;;;;;;;8.20;4.35;;;26.80;99.90;;;;;;5056422;28;20060;-74
2023/09/08 10:53:14;;;;;;;9.93;4.63;;;26.80;99.90;;;;;;5052726;28;20533;-74
2023/09/08 10:55:47;;;;;;;8.88;4.05;;;26.90;99.90;;;;;;5051690;28;20073;-75
2023/09/08 10:58:38;;;;;;;6.90;3.88;;;26.90;99.90;;;;;;5050197;28;20059;-74
2023/09/08 11:01:05;;;;;;;7.10;4.10;;;27.00;99.90;;;;;;5049780;28;20858;-75
2023/09/08 11:03:37;;;;;;;7.32;4.35;;;27.00;99.90;;;;;;5048710;28;20036;-74
2023/09/08 11:06:03;;;;;;;8.23;4.60;;;27.10;99.90;;;;;;5048016;28;20341;-75
2023/09/08 11:08:29;;;;;;;8.48;4.53;;;27.10;99.90;;;;;;5051267;28;20040;-74
2023/09/08 11:10:56;;;;;;;9.82;4.93;;;27.20;99.90;;;;;;5049928;28;20049;-75
2023/09/08 11:13:22;;;;;;;7.88;4.63;;;27.20;99.90;;;;;;5049221;28;20049;-74
2023/09/08 11:15:51;;;;;;;8.65;5.18;;;27.30;99.90;;;;;;5047184;28;20608;-75
2023/09/08 11:18:16;;;;;;;6.88;3.85;;;27.40;99.90;;;;;;5049984;28;20052;-75
2023/09/08 11:20:44;;;;;;;9.23;4.60;;;27.40;99.90;;;;;;5046479;28;20048;-75
2023/09/08 11:23:10;;;;;;;6.57;4.10;;;27.40;99.90;;;;;;5053276;28;20132;-75
2023/09/08 11:25:36;;;;;;;7.82;4.15;;;27.50;99.90;;;;;;5049629;28;20047;-75
2023/09/08 11:28:03;;;;;;;9.00;3.95;;;27.50;99.90;;;;;;5046308;28;20044;-74
2023/09/08 11:30:29;;;;;;;6.82;4.13;;;27.60;99.90;;;;;;5047673;28;20077;-74
2023/09/08 11:32:54;;;;;;;8.70;4.13;;;27.60;99.90;;;;;;5047206;28;20616;-75
2023/09/08 11:35:21;;;;;;;6.50;3.50;;;27.70;99.90;;;;;;5046506;28;20048;-75
2023/09/08 11:37:46;;;;;;;5.97;3.53;;;27.80;99.90;;;;;;5048131;28;20090;-75
2023/09/08 11:40:16;;;;;;;8.57;3.90;;;27.80;99.90;;;;;;5044886;28;20049;-75
2023/09/08 11:42:44;;;;;;;8.17;3.80;;;27.80;99.90;;;;;;5047589;28;20056;-75
2023/09/08 11:45:14;;;;;;;9.85;4.22;;;27.90;99.90;;;;;;5048134;28;21964;-74
2023/09/08 11:47:42;;;;;;;;;;;28.00;99.90;;;;;;5041955;28;20131;-75
2023/09/08 11:50:18;;;;;;;6.55;3.60;;;28.10;99.90;;;;;;5041465;28;19920;-75
2023/09/08 11:52:46;;;;;;;7.53;3.80;;;28.10;99.90;;;;;;5056793;28;20044;-75
2023/09/08 11:55:16;;;;;;;8.15;3.92;;;28.20;99.90;;;;;;5061599;28;20034;-75
2023/09/08 11:57:46;;;;;;;8.32;3.70;;;28.20;99.90;;;;;;5050283;28;20473;-74
2023/09/08 12:00:17;;;;;;;6.50;3.92;;;28.30;99.90;;;;;;5038297;28;21105;-75
2023/09/08 12:02:45;;;;;;;6.10;3.80;;;28.40;99.90;;;;;;5048688;28;20561;-76
2023/09/08 12:05:27;;;;;;;7.05;4.45;;;28.40;99.90;;;;;;5057437;28;20128;-75
2023/09/08 12:07:56;;;;;;;8.23;4.03;;;28.50;99.90;;;;;;5062073;28;20052;-75
2023/09/08 12:10:25;;;;;;;6.82;3.83;;;28.60;99.90;;;;;;5058908;28;20045;-75
2023/09/08 12:13:00;;;;;;;8.73;3.80;;;28.60;99.90;;;;;;5078662;28;20049;-76
2023/09/08 12:15:40;;;;;;;11.27;4.30;;;28.60;99.90;;;;;;5053020;28;20112;-75
2023/09/08 12:18:08;;;;;;;7.43;3.53;;;28.70;99.90;;;;;;5046252;28;20086;-76
2023/09/08 12:20:35;;;;;;;7.63;3.40;;;28.80;99.90;;;;;;5059420;28;20072;-75
2023/09/08 12:23:03;;;;;;;7.28;3.38;;;28.80;99.90;;;;;;5046529;28;20107;-76
2023/09/08 12:25:33;;;;;;;7.50;3.47;;;28.80;99.90;;;;;;5057501;28;20060;-75
2023/09/08 12:28:00;;;;;;;6.47;3.45;;;28.90;99.90;;;;;;5043608;28;20107;-75
2023/09/08 12:30:32;;;;;;;13.20;3.80;;;28.90;99.90;;;;;;5061989;28;20048;-76
2023/09/08 12:33:00;;;;;;;5.93;3.22;;;28.90;99.90;;;;;;5024745;28;20136;-75
2023/09/08 12:35:27;;;;;;;8.05;3.42;;;28.90;99.90;;;;;;5085309;28;20049;-75
2023/09/08 12:38:07;;;;;;;6.03;3.22;;;29.00;99.80;;;;;;5055189;28;20076;-75